Time;durP1;ratioP1;P1;durP2;ratioP2;P2;SDS_P1;SDS_P2;PMS_P1;PMS_P2;Temp;Humidity;BMP_temperature;BMP_pressure;BME280_temperature;BME280_humidity;BME280_pressure;Samples;Min_cycle;Max_cycle;Signal;HPM_P1;HPM_P2
2022/03/23 00:08:50;;;;;;;14.27;3.80;;;;;;;6.12;37.65;96344.56;5045411;28;20394;-85
2022/03/23 00:11:16;;;;;;;12.85;3.72;;;;;;;6.44;37.64;96384.00;5044773;28;20100;-84
2022/03/23 00:13:41;;;;;;;8.35;3.53;;;;;;;6.34;37.38;96344.97;5045516;28;20423;-84
2022/03/23 00:16:08;;;;;;;12.18;4.05;;;;;;;6.27;37.37;96322.34;5045737;28;20102;-85
2022/03/23 00:18:33;;;;;;;9.85;4.35;;;;;;;6.76;37.84;96409.22;5044188;28;20598;-84
2022/03/23 00:20:59;;;;;;;13.90;3.47;;;;;;;6.75;37.52;96426.06;5044357;28;20047;-85
2022/03/23 00:23:24;;;;;;;11.00;3.28;;;;;;;6.26;37.28;96329.44;5045408;28;20068;-85
2022/03/23 00:25:50;;;;;;;8.32;3.47;;;;;;;5.95;37.23;96271.63;5044049;28;20029;-84
2022/03/23 00:28:15;;;;;;;12.68;3.17;;;;;;;6.74;37.24;96398.06;5043309;28;20124;-84
2022/03/23 00:30:41;;;;;;;14.30;3.78;;;;;;;6.33;37.69;96345.22;5044015;28;20029;-84
2022/03/23 00:33:07;;;;;;;7.65;2.90;;;;;;;6.69;37.35;96394.50;5043531;28;20037;-85
2022/03/23 00:35:33;;;;;;;7.85;2.78;;;;;;;6.73;37.08;96396.47;5045350;28;20091;-84
2022/03/23 00:37:59;;;;;;;11.13;2.78;;;;;;;6.49;37.59;96377.03;5045636;28;20025;-85
2022/03/23 00:40:28;;;;;;;14.82;3.60;;;;;;;6.27;37.51;96349.50;5043707;28;20045;-84
2022/03/23 00:43:01;;;;;;;17.02;3.47;;;;;;;5.17;37.84;96174.75;5044127;28;20580;-84
2022/03/23 00:45:30;;;;;;;9.90;2.45;;;;;;;6.59;37.32;96392.34;5045579;28;20086;-84
2022/03/23 00:47:57;;;;;;;8.25;2.47;;;;;;;6.40;37.53;96378.38;5043349;28;20116;-84
2022/03/23 00:50:23;;;;;;;8.25;2.72;;;;;;;5.65;38.20;96324.09;5043591;28;20126;-84
2022/03/23 00:52:48;;;;;;;6.93;2.65;;;;;;;5.51;38.29;96285.72;5043368;28;20060;-85
2022/03/23 00:55:15;;;;;;;13.40;3.17;;;;;;;4.65;38.92;96168.06;5045329;28;20044;-84
2022/03/23 00:57:41;;;;;;;13.98;3.00;;;;;;;6.12;38.60;96404.34;5051229;28;20457;-84
2022/03/23 01:00:12;;;;;;;6.78;3.17;;;;;;;5.97;38.47;96374.88;5071902;28;20631;-84
2022/03/23 01:02:41;;;;;;;6.20;3.10;;;;;;;6.00;37.88;96369.22;5052009;28;20024;-84
2022/03/23 01:05:11;;;;;;;10.32;3.25;;;;;;;5.51;38.49;96293.63;5046400;28;20044;-84
2022/03/23 01:07:37;;;;;;;19.08;3.97;;;;;;;6.10;38.31;96387.97;5044123;28;20041;-85
2022/03/23 01:10:04;;;;;;;8.90;3.40;;;;;;;5.96;38.41;96354.84;5032875;28;20121;-84
2022/03/23 01:12:30;;;;;;;13.75;5.15;;;;;;;6.01;38.25;96405.88;5040814;28;20036;-85
2022/03/23 01:14:55;;;;;;;21.52;6.30;;;;;;;5.42;39.02;96322.84;5040359;28;20131;-84
2022/03/23 01:17:21;;;;;;;12.98;5.07;;;;;;;5.36;39.79;96317.63;5059125;28;20033;-85
2022/03/23 01:19:47;;;;;;;16.63;5.03;;;;;;;5.73;38.70;96377.25;5033372;28;20542;-84
2022/03/23 01:22:13;;;;;;;19.95;5.32;;;;;;;4.54;39.14;96171.34;5051450;28;20071;-84
2022/03/23 01:24:38;;;;;;;13.90;4.95;;;;;;;4.74;40.02;96268.44;5033677;28;20193;-82
2022/03/23 01:27:04;;;;;;;13.43;5.03;;;;;;;5.52;39.73;96376.81;5033708;28;20033;-84
2022/03/23 01:29:30;;;;;;;16.40;4.75;;;;;;;5.20;40.70;96352.31;5033633;28;20087;-83
2022/03/23 01:31:56;;;;;;;15.40;5.25;;;;;;;5.03;40.07;96292.31;5058067;28;20033;-84
2022/03/23 01:34:22;;;;;;;14.40;4.13;;;;;;;5.59;40.64;96399.44;5033330;28;20278;-84
2022/03/23 01:36:47;;;;;;;19.25;4.22;;;;;;;4.23;40.19;96165.03;5031998;28;20036;-83
2022/03/23 01:39:13;;;;;;;12.73;4.30;;;;;;;5.18;40.90;96334.13;5051206;28;20045;-84
2022/03/23 01:41:40;;;;;;;11.10;4.70;;;;;;;5.59;40.69;96396.00;5034732;28;20034;-83
2022/03/23 01:44:24;;;;;;;10.88;4.30;;;;;;;5.47;40.67;96400.34;5036811;28;20293;-83
2022/03/23 01:47:06;;;;;;;18.23;3.33;;;;;;;4.99;41.11;96324.53;5031570;28;20116;-83
2022/03/23 01:49:32;;;;;;;20.52;4.05;;;;;;;4.78;41.25;96324.84;5031902;28;20036;-83
2022/03/23 01:51:58;;;;;;;13.15;4.05;;;;;;;4.32;42.19;96278.53;5032404;28;20033;-83
2022/03/23 01:54:23;;;;;;;11.57;3.42;;;;;;;4.04;42.72;96218.44;5051115;28;20029;-83
2022/03/23 01:56:50;;;;;;;11.85;3.17;;;;;;;3.18;41.83;96078.84;5032147;28;20091;-83
2022/03/23 01:59:17;;;;;;;9.77;3.22;;;;;;;4.40;42.56;96320.31;5032896;28;20064;-83
2022/03/23 02:01:43;;;;;;;11.60;3.28;;;;;;;4.93;42.61;96401.59;5032383;28;20047;-84
2022/03/23 02:04:09;;;;;;;14.45;3.55;;;;;;;4.12;42.56;96280.41;5040454;28;20480;-83
2022/03/23 02:06:35;;;;;;;8.73;3.47;;;;;;;4.42;43.71;96375.28;5035627;28;20025;-83
2022/03/23 02:09:01;;;;;;;21.05;3.75;;;;;;;4.54;43.58;96378.88;5041067;28;20106;-83
2022/03/23 02:11:27;;;;;;;9.35;3.00;;;;;;;1.75;43.26;95924.28;5056215;28;20032;-83
2022/03/23 02:13:53;;;;;;;15.18;3.47;;;;;;;4.56;43.32;96366.34;5050586;28;20094;-83
2022/03/23 02:16:19;;;;;;;14.63;3.30;;;;;;;4.50;43.34;96369.81;5058215;28;20487;-83
2022/03/23 02:18:45;;;;;;;15.45;3.55;;;;;;;3.53;43.19;96218.34;5032635;28;20032;-82
2022/03/23 02:21:13;;;;;;;16.40;3.92;;;;;;;3.49;43.61;96206.66;5031685;28;20044;-84
2022/03/23 02:23:39;;;;;;;12.23;3.60;;;;;;;4.24;43.25;96326.81;5032119;28;20024;-83
2022/03/23 02:26:06;;;;;;;14.40;2.90;;;;;;;3.62;43.11;96218.94;5054155;28;20040;-84
2022/03/23 02:28:31;;;;;;;15.63;4.35;;;;;;;4.60;43.62;96386.75;5038151;28;20029;-84
2022/03/23 02:30:57;;;;;;;11.00;3.55;;;;;;;4.41;44.14;96408.63;5065317;28;20058;-84
2022/03/23 02:33:23;;;;;;;18.67;4.88;;;;;;;3.73;44.62;96333.75;5061220;28;20569;-85
2022/03/23 02:35:48;;;;;;;20.45;3.47;;;;;;;4.20;44.50;96403.56;5049825;28;20094;-84
2022/03/23 02:38:17;;;;;;;11.30;4.13;;;;;;;3.51;44.74;96306.13;5032719;28;20036;-84
2022/03/23 02:40:44;;;;;;;13.88;3.85;;;;;;;3.84;45.47;96409.25;5039220;28;20036;-84
2022/03/23 02:43:09;;;;;;;9.65;4.00;;;;;;;3.92;45.33;96416.09;5052410;28;20101;-84
2022/03/23 02:45:35;;;;;;;9.70;3.55;;;;;;;3.12;45.43;96307.69;5041446;28;20316;-84
2022/03/23 02:48:02;;;;;;;14.45;3.95;;;;;;;3.09;45.50;96285.31;5034852;28;20041;-84
2022/03/23 02:50:27;;;;;;;10.10;3.45;;;;;;;3.66;45.63;96351.31;5049622;28;20033;-84
2022/03/23 03:04:10;;;;;;;9.35;3.67;;;;;;;3.21;46.60;96363.34;5051087;28;20136;-84
2022/03/23 03:06:35;;;;;;;14.07;4.25;;;;;;;3.09;46.47;96342.16;5048604;28;20123;-84
2022/03/23 03:09:01;;;;;;;14.85;4.05;;;;;;;3.62;46.33;96416.50;5030364;28;20043;-84
2022/03/23 03:11:26;;;;;;;14.40;4.20;;;;;;;2.95;46.44;96354.41;5048564;28;20036;-84
2022/03/23 03:13:52;;;;;;;12.77;3.90;;;;;;;3.25;46.86;96412.56;5057889;28;20044;-84
2022/03/23 03:16:19;;;;;;;13.50;5.05;;;;;;;3.48;46.27;96420.09;5030920;28;20730;-84
2022/03/23 03:18:46;;;;;;;18.17;4.43;;;;;;;3.13;46.39;96360.94;5030627;28;20036;-84
2022/03/23 03:21:13;;;;;;;14.45;4.18;;;;;;;3.23;46.01;96370.00;5030554;28;20103;-84
2022/03/23 03:23:44;;;;;;;11.10;3.63;;;;;;;2.16;46.74;96238.91;5041745;28;20033;-85
2022/03/23 03:26:11;;;;;;;11.90;4.43;;;;;;;2.97;46.49;96336.69;5030515;28;20061;-84
2022/03/23 03:28:38;;;;;;;12.70;4.05;;;;;;;3.65;46.29;96410.03;5049032;28;20067;-84
2022/03/23 03:31:07;;;;;;;13.90;4.22;;;;;;;2.44;45.77;96209.22;5030424;28;20032;-84
2022/03/23 03:33:33;;;;;;;9.52;4.00;;;;;;;3.87;45.75;96416.72;5048751;28;20037;-84
2022/03/23 03:35:59;;;;;;;13.00;4.03;;;;;;;3.35;46.13;96371.06;5030613;28;20513;-84
2022/03/23 03:38:26;;;;;;;11.35;4.18;;;;;;;3.83;46.03;96408.44;5056526;28;20044;-84
2022/03/23 03:40:51;;;;;;;10.90;3.97;;;;;;;3.53;45.87;96344.22;5031460;28;20123;-84
2022/03/23 03:43:17;;;;;;;13.85;3.75;;;;;;;3.62;45.75;96366.66;5030195;28;20132;-85
2022/03/23 03:45:46;;;;;;;10.38;3.92;;;;;;;4.02;46.04;96413.91;5030201;28;20119;-84
2022/03/23 03:48:13;;;;;;;14.02;4.10;;;;;;;3.94;45.94;96417.53;5029866;28;20029;-84
2022/03/23 03:50:39;;;;;;;18.25;4.30;;;;;;;3.41;46.07;96306.50;5030328;28;20356;-85
2022/03/23 03:53:07;;;;;;;16.83;5.47;;;;;;;3.77;45.98;96363.81;5058398;28;20518;-84
2022/03/23 03:55:33;;;;;;;12.30;4.28;;;;;;;4.09;46.07;96417.31;5047796;28;20089;-84
2022/03/23 03:57:59;;;;;;;25.20;5.20;;;;;;;3.65;45.63;96316.41;5048348;28;20021;-84
2022/03/23 04:00:25;;;;;;;12.38;4.85;;;;;;;3.82;46.09;96349.09;5040023;28;20040;-84
2022/03/23 04:02:51;;;;;;;13.57;3.78;;;;;;;3.20;46.24;96251.66;5058805;28;20024;-84
2022/03/23 04:05:16;;;;;;;22.00;4.20;;;;;;;3.74;46.16;96359.78;5058209;28;20102;-84
2022/03/23 04:07:41;;;;;;;13.85;3.65;;;;;;;4.14;46.23;96420.94;5035489;28;20037;-82
2022/03/23 04:10:07;;;;;;;17.02;4.50;;;;;;;3.73;46.86;96370.50;5030373;28;20349;-84
2022/03/23 04:12:33;;;;;;;11.07;3.90;;;;;;;3.29;47.25;96303.66;5030901;28;20024;-84
2022/03/23 04:14:58;;;;;;;11.63;3.95;;;;;;;3.44;47.03;96329.69;5030004;28;20041;-84
2022/03/23 04:17:24;;;;;;;13.63;3.63;;;;;;;3.36;47.56;96356.09;5057303;28;20092;-83
2022/03/23 04:19:49;;;;;;;18.35;3.83;;;;;;;3.94;47.86;96416.72;5030507;28;20503;-82
2022/03/23 04:22:15;;;;;;;10.55;3.90;;;;;;;3.95;48.00;96431.47;5027029;28;20036;-83
2022/03/23 04:24:41;;;;;;;16.02;3.53;;;;;;;3.61;47.86;96369.47;5047949;28;20025;-83
2022/03/23 04:27:06;;;;;;;14.30;4.25;;;;;;;3.66;48.01;96391.44;5030174;28;20025;-83
2022/03/23 04:29:32;;;;;;;14.48;4.15;;;;;;;2.55;47.96;96204.19;5048557;28;20415;-83
2022/03/23 04:31:57;;;;;;;12.00;3.63;;;;;;;3.48;47.90;96326.50;5059307;28;20414;-83
2022/03/23 04:34:23;;;;;;;10.20;3.28;;;;;;;3.06;47.88;96259.47;5030356;28;20555;-83
2022/03/23 04:36:48;;;;;;;10.98;3.38;;;;;;;4.13;48.06;96429.03;5042158;28;20480;-83
2022/03/23 04:39:14;;;;;;;11.52;3.45;;;;;;;3.55;47.51;96323.06;5059918;28;20047;-84
2022/03/23 04:41:39;;;;;;;8.60;3.35;;;;;;;4.22;47.92;96428.63;5038098;28;20039;-85
2022/03/23 04:44:05;;;;;;;13.38;3.45;;;;;;;4.23;47.93;96425.00;5055270;28;20041;-83
2022/03/23 04:46:30;;;;;;;14.93;6.88;;;;;;;3.42;48.51;96310.75;5038347;28;20025;-84
2022/03/23 04:48:56;;;;;;;20.65;5.47;;;;;;;3.54;48.86;96337.19;5059393;28;20629;-85
2022/03/23 04:51:21;;;;;;;12.70;3.97;;;;;;;3.83;49.05;96386.63;5035954;28;20041;-84
2022/03/23 04:53:47;;;;;;;10.13;3.85;;;;;;;3.76;49.68;96385.81;5042644;28;20035;-84
2022/03/23 04:56:12;;;;;;;19.90;4.95;;;;;;;3.32;49.22;96281.50;5033233;28;20102;-84
2022/03/23 04:58:38;;;;;;;9.70;3.60;;;;;;;3.86;49.51;96370.50;5061925;28;20040;-85
2022/03/23 05:01:04;;;;;;;7.85;3.38;;;;;;;3.04;50.29;96265.94;5061899;28;20079;-84
2022/03/23 05:03:29;;;;;;;13.82;3.75;;;;;;;4.05;50.29;96426.59;5034113;28;20025;-84
2022/03/23 05:05:55;;;;;;;13.40;3.92;;;;;;;4.19;49.97;96436.13;5044761;28;20471;-84
2022/03/23 05:08:20;;;;;;;14.70;3.50;;;;;;;2.75;50.05;96230.41;5044206;28;20056;-84
2022/03/23 05:10:46;;;;;;;15.18;4.18;;;;;;;4.21;49.92;96415.69;5039442;28;20042;-84
2022/03/23 05:13:11;;;;;;;13.32;4.13;;;;;;;4.38;49.46;96435.28;5053114;28;20033;-85
2022/03/23 05:15:37;;;;;;;15.00;4.53;;;;;;;4.45;49.13;96432.63;5058411;28;20040;-84
2022/03/23 05:18:05;;;;;;;14.55;4.63;;;;;;;4.38;49.42;96435.28;5035190;28;20037;-85
2022/03/23 05:20:30;;;;;;;12.88;4.55;;;;;;;2.54;50.20;96167.72;5040276;28;20037;-85
2022/03/23 05:22:56;;;;;;;15.65;3.70;;;;;;;3.63;50.11;96334.16;5041766;28;20067;-84
2022/03/23 05:25:22;;;;;;;22.08;4.30;;;;;;;3.53;49.99;96304.09;5032679;28;20048;-85
2022/03/23 05:27:48;;;;;;;16.75;4.07;;;;;;;4.24;49.89;96412.66;5031515;28;20028;-85
2022/03/23 05:30:14;;;;;;;21.63;4.28;;;;;;;3.99;49.51;96356.53;5033471;28;20035;-86
2022/03/23 05:32:40;;;;;;;19.83;4.65;;;;;;;3.78;49.34;96308.53;5035689;28;20036;-85
2022/03/23 05:35:08;;;;;;;15.80;5.10;;;;;;;4.40;50.11;96435.88;5032428;28;20100;-86
2022/03/23 05:37:33;;;;;;;18.13;4.88;;;;;;;3.73;49.88;96336.38;5028818;28;20033;-85
2022/03/23 05:40:00;;;;;;;22.77;6.70;;;;;;;4.42;49.33;96410.25;5032379;28;20044;-85
2022/03/23 05:42:35;;;;;;;18.02;6.00;;;;;;;3.77;49.65;96311.34;5052002;28;20053;-85
2022/03/23 05:45:05;;;;;;;14.48;6.60;;;;;;;4.68;49.58;96446.16;5030257;28;20060;-84
2022/03/23 05:47:30;;;;;;;24.15;7.80;;;;;;;3.59;49.32;96282.28;5026315;28;20443;-83
2022/03/23 05:49:56;;;;;;;16.15;7.22;;;;;;;2.51;50.17;96113.97;5028103;28;20028;-84
2022/03/23 05:52:21;;;;;;;20.15;7.45;;;;;;;4.61;49.31;96419.06;5030478;28;20095;-84
2022/03/23 05:54:47;;;;;;;29.52;7.25;;;;;;;2.92;49.20;96155.66;5045175;28;20080;-83
2022/03/23 05:57:13;;;;;;;17.52;7.85;;;;;;;3.94;49.67;96323.03;5027944;28;20037;-83
2022/03/23 05:59:38;;;;;;;27.00;7.35;;;;;;;4.06;49.54;96329.28;5036937;28;20519;-83
2022/03/23 06:02:04;;;;;;;25.70;7.90;;;;;;;4.77;49.63;96439.66;5052315;28;20133;-84
2022/03/23 06:04:29;;;;;;;21.73;7.95;;;;;;;4.30;48.90;96363.78;5029863;28;20629;-84
2022/03/23 06:06:55;;;;;;;20.27;7.05;;;;;;;4.47;49.66;96378.91;5019405;28;20037;-84
2022/03/23 06:09:20;;;;;;;29.92;7.68;;;;;;;3.86;49.79;96261.09;5003518;28;20529;-84
2022/03/23 06:11:46;;;;;;;20.00;6.75;;;;;;;4.86;49.78;96433.16;5022027;28;20053;-85
2022/03/23 06:14:12;;;;;;;15.07;5.68;;;;;;;4.44;50.19;96386.38;5000997;28;20037;-86
2022/03/23 06:16:37;;;;;;;17.55;6.63;;;;;;;4.48;51.10;96406.78;5005291;28;20049;-84
2022/03/23 06:19:03;;;;;;;24.42;6.93;;;;;;;4.04;50.55;96336.56;5022730;28;20113;-84
2022/03/23 06:21:29;;;;;;;30.77;7.28;;;;;;;4.85;51.25;96455.22;5013903;28;20059;-84
2022/03/23 06:23:55;;;;;;;20.38;7.03;;;;;;;3.77;52.78;96317.41;5012772;28;20509;-83
2022/03/23 06:26:20;;;;;;;19.83;6.45;;;;;;;3.99;52.91;96364.41;5028169;28;20032;-84
2022/03/23 06:28:46;;;;;;;22.10;6.90;;;;;;;4.11;52.17;96350.50;5025265;28;20041;-83
2022/03/23 06:31:11;;;;;;;32.55;7.95;;;;;;;4.46;52.14;96405.38;5002246;28;20212;-84
2022/03/23 06:33:37;;;;;;;16.83;6.10;;;;;;;4.55;52.76;96427.78;5006144;28;21322;-84
2022/03/23 06:36:03;;;;;;;18.65;5.60;;;;;;;3.64;52.41;96254.47;5004955;28;20037;-83
2022/03/23 06:38:29;;;;;;;23.52;6.78;;;;;;;5.00;52.25;96449.69;5013188;28;20028;-84
2022/03/23 06:40:55;;;;;;;18.48;6.70;;;;;;;4.73;52.74;96433.19;5004242;28;20041;-85
2022/03/23 06:43:21;;;;;;;15.93;5.40;;;;;;;5.20;52.15;96449.63;5025509;28;20030;-85
2022/03/23 06:45:46;;;;;;;20.63;5.03;;;;;;;3.04;52.15;96151.44;5002919;28;20033;-84
2022/03/23 06:48:12;;;;;;;13.63;5.05;;;;;;;2.94;52.04;96161.53;5026986;28;20119;-84
2022/03/23 06:50:37;;;;;;;11.45;4.40;;;;;;;5.03;52.26;96494.00;4996633;28;20499;-84
2022/03/23 06:53:04;;;;;;;19.17;5.68;;;;;;;3.73;52.37;96283.91;5001728;28;20040;-84
2022/03/23 06:55:35;;;;;;;16.05;5.78;;;;;;;2.65;52.39;96118.19;4993687;28;20067;-83
2022/03/23 06:58:01;;;;;;;38.47;6.97;;;;;;;4.02;52.65;96375.34;4997268;28;20400;-83
2022/03/23 07:00:27;;;;;;;17.88;6.20;;;;;;;1.25;52.38;95881.16;5009283;28;20060;-83
2022/03/23 07:02:53;;;;;;;16.65;6.07;;;;;;;0.27;52.00;95702.38;5027016;28;20751;-84
2022/03/23 07:05:19;;;;;;;26.05;6.15;;;;;;;2.77;52.59;96225.78;5010287;28;20041;-84
2022/03/23 07:10:31;;;;;;;13.82;5.22;;;;;;;3.93;51.45;96281.25;5023384;28;20159;-84
2022/03/23 07:12:57;;;;;;;16.33;4.82;;;;;;;4.62;51.14;96379.47;5000258;28;20029;-84
2022/03/23 07:15:24;;;;;;;18.83;4.80;;;;;;;4.47;51.08;96396.47;4994649;28;20416;-84
2022/03/23 07:17:50;;;;;;;24.38;5.10;;;;;;;1.86;51.23;95991.66;4991563;28;20119;-84
2022/03/23 07:20:15;;;;;;;14.43;4.32;;;;;;;0.30;50.79;95713.25;5002411;28;20679;-84
2022/03/23 07:22:41;;;;;;;15.77;4.55;;;;;;;2.83;51.07;96082.72;4994612;28;20257;-84
2022/03/23 07:25:07;;;;;;;11.52;4.13;;;;;;;5.34;50.65;96474.88;4998382;28;20048;-84
2022/03/23 07:27:32;;;;;;;22.27;4.10;;;;;;;2.53;49.98;96017.66;5003266;28;20045;-84
2022/03/23 07:29:58;;;;;;;15.30;4.72;;;;;;;4.48;50.47;96335.06;5007948;28;20515;-84
2022/03/23 07:32:26;;;;;;;20.95;4.68;;;;;;;1.89;50.31;95963.31;4998528;28;20037;-84
2022/03/23 07:34:55;;;;;;;22.55;5.50;;;;;;;-0.04;50.07;95619.44;5002116;28;20056;-84
2022/03/23 07:37:21;;;;;;;17.90;4.20;;;;;;;0.73;50.83;95747.66;4998983;28;20033;-84
2022/03/23 07:39:49;;;;;;;11.77;3.85;;;;;;;2.10;50.23;95969.34;5001128;28;20049;-85
2022/03/23 07:42:15;;;;;;;13.95;4.20;;;;;;;2.44;49.48;95997.91;5005896;28;20102;-85
2022/03/23 07:44:43;;;;;;;16.58;3.97;;;;;;;0.35;50.98;95710.03;5001529;28;20037;-84
2022/03/23 07:47:10;;;;;;;10.02;3.97;;;;;;;3.47;50.85;96209.47;5003153;28;20040;-85
2022/03/23 07:49:36;;;;;;;15.35;4.40;;;;;;;-0.01;50.25;95639.94;5004459;28;20480;-84
2022/03/23 07:52:03;;;;;;;16.15;4.38;;;;;;;0.20;50.22;95715.41;5024850;28;20140;-84
2022/03/23 07:54:29;;;;;;;17.05;3.80;;;;;;;3.63;50.31;96191.69;5015739;28;20036;-84
2022/03/23 07:56:54;;;;;;;9.13;3.88;;;;;;;0.59;49.75;95753.88;5005431;28;20021;-83
2022/03/23 07:59:20;;;;;;;13.00;3.85;;;;;;;3.16;49.71;96183.09;5001519;28;20042;-82
2022/03/23 08:01:45;;;;;;;11.82;3.25;;;;;;;2.90;48.92;96060.72;5004185;28;20176;-83
2022/03/23 08:04:11;;;;;;;16.38;4.53;;;;;;;5.33;48.74;96518.78;5003824;28;20041;-82
2022/03/23 08:06:37;;;;;;;16.77;4.13;;;;;;;2.41;49.07;96031.56;4997200;28;20106;-83
2022/03/23 08:09:03;;;;;;;21.00;4.15;;;;;;;0.25;48.89;95649.59;5021617;28;20044;-83
2022/03/23 08:11:29;;;;;;;10.00;3.45;;;;;;;4.82;48.90;96389.09;5042729;28;20091;-83
2022/03/23 08:13:56;;;;;;;14.82;3.63;;;;;;;0.09;49.03;95623.88;5018173;28;20037;-82
2022/03/23 08:16:21;;;;;;;10.20;4.00;;;;;;;1.39;48.85;95797.34;5020295;28;20530;-85
2022/03/23 08:18:47;;;;;;;12.07;4.18;;;;;;;3.16;48.49;96066.94;5039774;28;20043;-81
2022/03/23 08:21:17;;;;;;;15.02;4.57;;;;;;;3.76;48.65;96147.88;5042348;28;20123;-82
2022/03/23 08:23:43;;;;;;;13.65;4.40;;;;;;;3.55;47.74;96142.06;5030129;28;20032;-83
2022/03/23 08:26:10;;;;;;;15.32;4.50;;;;;;;4.22;48.05;96247.44;5041027;28;20087;-81
2022/03/23 08:28:38;;;;;;;16.13;4.90;;;;;;;5.23;48.05;96407.13;5040223;28;20124;-83
2022/03/23 08:31:04;;;;;;;17.67;4.93;;;;;;;5.39;48.44;96364.56;5025099;28;20037;-83
2022/03/23 08:33:34;;;;;;;22.00;4.97;;;;;;;4.45;47.32;96206.75;5023896;28;20092;-83
2022/03/23 08:36:00;;;;;;;19.98;4.78;;;;;;;5.71;46.94;96397.75;5015619;28;20106;-83
2022/03/23 08:38:25;;;;;;;15.98;5.30;;;;;;;5.20;46.82;96326.00;5016354;28;20403;-82
2022/03/23 08:40:51;;;;;;;16.67;4.95;;;;;;;4.04;46.58;96121.31;5018821;28;20368;-83
2022/03/23 08:43:17;;;;;;;12.07;5.28;;;;;;;3.89;47.29;96141.78;5017585;28;20033;-83
2022/03/23 08:45:45;;;;;;;14.38;5.47;;;;;;;4.80;46.42;96205.34;5014559;28;20037;-84
2022/03/23 08:48:11;;;;;;;14.15;4.25;;;;;;;4.76;46.27;96179.69;5019217;28;20110;-83
2022/03/23 08:50:37;;;;;;;15.23;4.85;;;;;;;6.55;46.17;96484.25;5017610;28;20259;-84
2022/03/23 08:53:04;;;;;;;15.25;5.07;;;;;;;4.51;45.29;96099.00;5024286;28;20064;-84
2022/03/23 08:55:30;;;;;;;19.80;5.50;;;;;;;5.12;45.21;96179.00;5019244;28;20511;-84
2022/03/23 08:57:56;;;;;;;20.38;5.25;;;;;;;4.96;44.48;96139.09;5017230;28;20059;-85
2022/03/23 09:00:22;;;;;;;17.23;4.55;;;;;;;4.60;44.63;96054.88;5038435;28;20045;-84
2022/03/23 09:02:47;;;;;;;16.90;4.70;;;;;;;2.79;43.90;95773.22;5015010;28;20036;-84
2022/03/23 09:05:14;;;;;;;14.80;5.22;;;;;;;1.80;43.64;95678.66;5039484;28;20205;-83
2022/03/23 09:07:43;;;;;;;13.63;4.40;;;;;;;5.01;45.14;96122.69;5018239;28;20053;-84
2022/03/23 09:10:11;;;;;;;15.63;5.00;;;;;;;7.05;43.71;96438.50;5039298;28;20067;-83
2022/03/23 09:12:37;;;;;;;13.07;4.20;;;;;;;6.88;44.58;96414.56;5018705;28;20437;-84
2022/03/23 09:15:05;;;;;;;17.20;5.03;;;;;;;6.81;42.88;96395.38;5024326;28;20032;-84
2022/03/23 09:17:31;;;;;;;24.73;5.00;;;;;;;6.78;44.19;96375.53;5022602;28;20700;-84
2022/03/23 09:19:57;;;;;;;12.95;5.05;;;;;;;7.39;42.79;96440.56;5020407;28;20037;-84
2022/03/23 09:22:22;;;;;;;13.48;5.20;;;;;;;7.50;42.64;96460.91;5018179;28;20099;-86
2022/03/23 09:24:48;;;;;;;22.35;4.80;;;;;;;6.59;41.73;96298.28;5022467;28;20028;-84
2022/03/23 09:27:14;;;;;;;19.45;4.97;;;;;;;6.95;41.47;96389.72;5041141;28;20475;-83
2022/03/23 09:29:40;;;;;;;13.43;4.32;;;;;;;7.33;42.05;96412.38;5019387;28;20090;-84
2022/03/23 09:32:11;;;;;;;13.48;4.75;;;;;;;7.61;42.27;96427.66;5029265;28;20335;-84
2022/03/23 09:34:37;;;;;;;15.13;4.05;;;;;;;4.56;43.42;95985.44;5036263;28;20032;-84
2022/03/23 09:39:47;;;;;;;21.38;4.55;;;;;;;7.30;43.38;96376.72;5032821;28;20419;-84
2022/03/23 09:42:15;;;;;;;13.32;3.80;;;;;;;7.63;42.72;96410.56;5016444;28;20025;-84
2022/03/23 09:44:41;;;;;;;11.50;4.43;;;;;;;7.73;43.42;96399.47;5033642;28;20040;-84
2022/03/23 09:47:07;;;;;;;20.10;4.85;;;;;;;7.11;41.35;96300.44;5022240;28;20061;-85
2022/03/23 09:49:37;;;;;;;17.75;5.35;;;;;;;7.94;40.38;96427.97;5024919;28;20064;-85
2022/03/23 09:52:05;;;;;;;18.52;5.10;;;;;;;3.97;39.99;95808.22;5021907;28;20503;-84
2022/03/23 09:54:30;;;;;;;14.43;5.18;;;;;;;5.23;39.97;96068.69;5022776;28;20456;-85
2022/03/23 09:56:56;;;;;;;16.52;4.50;;;;;;;5.66;40.50;96099.38;5020259;28;20037;-83
2022/03/23 09:59:21;;;;;;;12.93;4.07;;;;;;;5.62;39.74;96090.31;5020650;28;20105;-83
2022/03/23 10:01:49;;;;;;;17.40;5.45;;;;;;;7.64;40.02;96406.09;5037590;28;20033;-84
2022/03/23 10:04:18;;;;;;;13.38;5.07;;;;;;;7.83;41.38;96398.91;5031041;28;20037;-85
2022/03/23 10:07:05;;;;;;;9.40;4.35;;;;;;;8.09;40.84;96396.66;5025543;28;20601;-85
2022/03/23 10:09:42;;;;;;;10.75;5.13;;;;;;;8.74;40.33;96393.13;5018877;28;20075;-84
2022/03/23 10:12:39;;;;;;;19.25;5.45;;;;;;;9.81;37.59;96403.97;5024472;28;20511;-85
2022/03/23 10:15:29;;;;;;;6.45;3.85;;;;;;;10.55;35.36;96388.72;5022804;28;20408;-84
2022/03/23 10:18:13;;;;;;;14.70;4.70;;;;;;;11.92;32.78;96385.88;5044354;28;20029;-85
2022/03/23 10:20:38;;;;;;;14.00;4.38;;;;;;;11.42;32.03;96208.19;5042476;28;20452;-85
2022/03/23 10:23:05;;;;;;;20.75;4.57;;;;;;;12.48;29.69;96389.78;5019126;28;20118;-85
2022/03/23 10:25:30;;;;;;;20.13;4.20;;;;;;;13.03;29.44;96383.19;5019102;28;20028;-85
2022/03/23 10:27:56;;;;;;;15.35;4.88;;;;;;;13.03;29.44;96383.19;5019672;28;20034;-85
2022/03/23 10:30:33;;;;;;;13.45;4.30;;;;;;;14.04;27.17;96380.81;5018570;28;20040;-83
2022/03/23 10:32:59;;;;;;;19.95;4.47;;;;;;;14.04;27.44;96380.81;5016190;28;20032;-83
2022/03/23 10:35:34;;;;;;;20.30;4.95;;;;;;;10.91;27.37;95706.13;5016128;28;20044;-82
2022/03/23 10:38:13;;;;;;;18.15;4.50;;;;;;;13.49;26.61;96155.81;5045364;28;20048;-83
2022/03/23 10:40:39;;;;;;;10.80;4.18;;;;;;;13.49;100.00;92052.72;5035609;28;20029;-84
2022/03/23 10:43:04;;;;;;;14.88;4.30;;;;;;;14.98;26.01;92541.28;5021095;28;20036;-83
2022/03/23 10:45:32;;;;;;;11.18;5.18;;;;;;;14.98;26.01;89573.84;5039947;28;20573;-84
2022/03/23 10:48:08;;;;;;;18.73;5.22;;;;;;;13.21;25.92;95993.06;5026586;28;20116;-83
2022/03/23 10:50:33;;;;;;;29.00;4.68;;;;;;;15.51;25.28;96342.31;5015626;28;20039;-83
2022/03/23 10:53:01;;;;;;;21.70;4.93;;;;;;;15.82;25.62;96357.13;5036805;28;20028;-83
2022/03/23 10:55:38;;;;;;;24.73;6.28;;;;;;;15.48;25.44;96332.19;5021750;28;20075;-83
2022/03/23 10:58:03;;;;;;;18.30;4.38;;;;;;;16.17;24.60;96351.50;5038257;28;20051;-84
2022/03/23 11:00:35;;;;;;;13.27;4.15;;;;;;;15.52;25.42;96295.78;5021250;28;20028;-83
2022/03/23 11:03:04;;;;;;;26.48;5.03;;;;;;;15.79;24.71;96341.66;5022288;28;20157;-88
2022/03/23 11:05:42;;;;;;;14.05;4.07;;;;;;;15.88;24.88;96349.88;5018796;28;20078;-87
2022/03/23 11:08:26;;;;;;;17.73;4.15;;;;;;;16.40;25.77;96343.84;5013225;28;20037;-87
2022/03/23 11:16:51;;;;;;;9.93;3.80;;;;;;;16.25;24.44;96231.56;5023128;28;20185;-87
2022/03/23 11:19:20;;;;;;;18.65;4.95;;;;;;;16.82;24.93;96332.47;5013523;28;20033;-87
2022/03/23 11:22:12;;;;;;;14.70;4.03;;;;;;;16.62;24.45;96338.06;5017589;28;20551;-88
2022/03/23 11:24:45;;;;;;;15.75;4.75;;;;;;;17.13;24.37;96338.28;5035810;28;20036;-83
2022/03/23 11:27:16;;;;;;;14.27;4.32;;;;;;;16.41;24.49;96236.47;5018026;28;20025;-84
2022/03/23 11:29:43;;;;;;;13.50;4.40;;;;;;;15.87;25.30;96129.72;5020987;28;20033;-84
2022/03/23 11:32:18;;;;;;;10.05;3.47;;;;;;;16.74;24.37;96272.28;5011508;28;20509;-85
2022/03/23 11:34:53;;;;;;;16.48;4.05;;;;;;;13.76;24.13;95797.50;5016449;28;20033;-84
2022/03/23 11:37:21;;;;;;;14.00;4.22;;;;;;;15.22;24.65;95955.53;5015736;28;20033;-84
2022/03/23 11:39:47;;;;;;;10.02;3.90;;;;;;;13.57;24.65;95698.75;5010831;28;20041;-84
2022/03/23 11:42:14;;;;;;;21.92;4.43;;;;;;;17.16;23.56;96252.75;5019671;28;21520;-85
2022/03/23 11:44:42;;;;;;;12.48;4.22;;;;;;;15.30;23.43;95887.31;5018700;28;20033;-84
2022/03/23 11:47:21;;;;;;;10.57;4.13;;;;;;;16.61;23.66;96104.25;5022405;28;20021;-85
2022/03/23 11:50:02;;;;;;;15.95;4.88;;;;;;;16.26;23.06;96070.66;5025000;28;20758;-84
2022/03/23 11:52:39;;;;;;;8.77;3.85;;;;;;;17.28;22.46;96293.31;5017069;28;20033;-84
2022/03/23 11:55:37;;;;;;;15.63;3.72;;;;;;;17.24;23.32;96304.91;5019114;28;20449;-85
2022/03/23 12:00:50;;;;;;;13.88;4.88;;;;;;;13.00;24.75;95716.16;5029005;28;20030;-85
2022/03/23 12:03:41;;;;;;;14.20;4.72;;;;;;;14.79;25.02;95978.66;4995643;28;20308;-85
2022/03/23 12:06:16;;;;;;;10.93;3.80;;;;;;;15.32;25.13;96053.53;5009829;28;21582;-84
2022/03/23 12:08:49;;;;;;;18.17;4.68;;;;;;;15.46;23.96;96070.50;5023850;28;20080;-83